Time;durP1;ratioP1;P1;durP2;ratioP2;P2;SDS_P1;SDS_P2;PMS_P1;PMS_P2;Temp;Humidity;BMP_temperature;BMP_pressure;BME280_temperature;BME280_humidity;BME280_pressure;Samples;Min_cycle;Max_cycle;Signal;HPM_P1;HPM_P2
2021/03/31 00:02:15;;;;;;;7.22;3.58;;;;;;;13.00;55.59;100803.69;4994373;28;20225;-64
2021/03/31 00:04:48;;;;;;;8.25;3.60;;;;;;;13.00;55.52;100802.81;4994401;28;20034;-63
2021/03/31 00:07:13;;;;;;;5.03;2.97;;;;;;;12.99;55.46;100806.25;4994342;28;20041;-62
2021/03/31 00:09:42;;;;;;;8.13;4.07;;;;;;;13.01;55.89;100807.19;4994740;28;20031;-62
2021/03/31 00:12:08;;;;;;;8.13;4.50;;;;;;;13.01;56.00;100804.56;4960772;28;20041;-62
2021/03/31 00:14:39;;;;;;;5.03;2.95;;;;;;;13.02;55.60;100812.41;4977281;28;20042;-62
2021/03/31 00:17:07;;;;;;;5.50;3.90;;;;;;;13.01;56.11;100801.97;4994536;28;20494;-63
2021/03/31 00:19:38;;;;;;;5.03;3.45;;;;;;;13.00;55.74;100790.66;4994322;28;20490;-64
2021/03/31 00:22:07;;;;;;;4.90;3.90;;;;;;;12.99;55.41;100788.94;4977187;28;20042;-62
2021/03/31 00:24:37;;;;;;;6.32;3.88;;;;;;;12.98;55.66;100792.41;4994161;28;20062;-63
2021/03/31 00:27:06;;;;;;;5.65;3.58;;;;;;;12.98;55.61;100795.00;4993871;28;20084;-64
2021/03/31 00:29:34;;;;;;;4.25;3.47;;;;;;;12.98;55.39;100792.41;4994036;28;20054;-62
2021/03/31 00:31:59;;;;;;;9.23;3.55;;;;;;;12.99;55.52;100798.47;4976827;28;20117;-64
2021/03/31 00:34:30;;;;;;;6.47;3.85;;;;;;;12.99;55.50;100791.53;4994215;28;20146;-62
2021/03/31 00:36:56;;;;;;;4.72;3.30;;;;;;;12.97;55.34;100788.03;4994082;28;20061;-63
2021/03/31 00:39:21;;;;;;;4.55;3.33;;;;;;;12.97;55.08;100789.75;4976022;28;20417;-62
2021/03/31 00:41:48;;;;;;;5.40;3.22;;;;;;;12.95;54.84;100789.72;4993694;28;20042;-63
2021/03/31 00:44:19;;;;;;;5.97;3.55;;;;;;;12.94;55.21;100782.78;4994157;28;20378;-63
2021/03/31 00:46:50;;;;;;;10.50;4.28;;;;;;;12.93;54.99;100781.03;4976990;28;20371;-63
2021/03/31 00:49:15;;;;;;;7.63;3.28;;;;;;;12.92;55.30;100777.53;4994325;28;20041;-63
2021/03/31 00:51:41;;;;;;;6.47;3.75;;;;;;;12.92;55.48;100771.47;4976944;28;20038;-62
2021/03/31 00:54:07;;;;;;;7.72;3.70;;;;;;;12.92;55.19;100772.31;4993994;28;20042;-63
2021/03/31 00:56:38;;;;;;;9.23;3.70;;;;;;;12.90;55.17;100766.25;4976470;28;20190;-64
2021/03/31 00:59:06;;;;;;;8.20;3.97;;;;;;;12.90;54.93;100768.84;4976420;28;20041;-63
2021/03/31 01:01:31;;;;;;;6.75;3.78;;;;;;;12.89;54.73;100764.47;4993791;28;20367;-63
2021/03/31 01:04:02;;;;;;;4.35;3.20;;;;;;;12.89;55.32;100761.88;4994019;28;20076;-63
2021/03/31 01:06:36;;;;;;;5.05;3.70;;;;;;;12.88;55.00;100762.72;4994137;28;20034;-62
2021/03/31 01:09:04;;;;;;;5.20;3.30;;;;;;;12.89;55.06;100763.59;4976592;28;20034;-63
2021/03/31 01:12:08;;;;;;;5.57;3.92;;;;;;;12.86;55.34;100751.41;4993919;28;20030;-62
2021/03/31 01:15:04;;;;;;;4.47;3.28;;;;;;;12.86;55.37;100748.81;4926215;28;20077;-63
2021/03/31 01:17:37;;;;;;;7.00;3.47;;;;;;;12.88;55.51;100747.13;4976057;28;20168;-64
2021/03/31 01:20:21;;;;;;;6.13;3.50;;;;;;;12.86;55.00;100743.63;4976531;28;20041;-63
2021/03/31 01:23:14;;;;;;;9.77;4.43;;;;;;;12.85;55.36;100738.38;4994329;28;20049;-62
2021/03/31 01:25:47;;;;;;;5.30;3.53;;;;;;;12.85;54.98;100738.38;4993649;28;20303;-64
2021/03/31 01:28:28;;;;;;;3.97;3.30;;;;;;;12.83;55.07;100740.94;4976177;28;20034;-63
2021/03/31 01:31:10;;;;;;;6.57;4.15;;;;;;;12.82;55.52;100728.78;4993937;28;20081;-62
2021/03/31 01:33:55;;;;;;;4.78;3.17;;;;;;;12.81;54.99;100723.56;4993581;28;20038;-62
2021/03/31 01:36:20;;;;;;;5.50;3.53;;;;;;;12.81;54.98;100720.97;4976711;28;20064;-63
2021/03/31 01:38:54;;;;;;;5.13;3.42;;;;;;;12.80;54.76;100725.28;4976068;28;20034;-62
2021/03/31 01:41:21;;;;;;;5.53;3.85;;;;;;;12.79;54.73;100720.94;4993370;28;20440;-63
2021/03/31 01:43:51;;;;;;;6.03;3.88;;;;;;;12.77;54.89;100713.09;4976214;28;20065;-63
2021/03/31 01:46:24;;;;;;;7.88;3.80;;;;;;;12.77;54.84;100710.50;4975863;28;20390;-63
2021/03/31 01:48:51;;;;;;;7.23;4.30;;;;;;;12.77;54.44;100709.63;4993264;28;20113;-63
2021/03/31 01:51:22;;;;;;;8.00;3.70;;;;;;;12.75;54.50;100700.94;4976102;28;20378;-64
2021/03/31 01:53:48;;;;;;;5.60;3.60;;;;;;;12.75;54.29;100706.13;4979742;28;20117;-63
2021/03/31 01:56:17;;;;;;;6.05;3.95;;;;;;;12.74;54.62;100707.84;4996857;28;20030;-63
2021/03/31 01:58:44;;;;;;;5.85;3.60;;;;;;;12.74;54.30;100704.38;4996819;28;20050;-64
2021/03/31 02:01:13;;;;;;;6.38;3.92;;;;;;;12.74;54.63;100704.38;4979117;28;20121;-65
2021/03/31 02:03:47;;;;;;;7.95;3.58;;;;;;;12.72;54.53;100706.94;4979705;28;20030;-64
2021/03/31 02:06:14;;;;;;;6.72;3.97;;;;;;;12.72;54.61;100700.88;4996808;28;20034;-62
2021/03/31 02:08:41;;;;;;;4.63;3.50;;;;;;;12.72;54.77;100698.28;4996813;28;20077;-62
2021/03/31 02:11:10;;;;;;;6.03;3.25;;;;;;;12.71;54.39;100701.72;4996853;28;20102;-63
2021/03/31 02:13:44;;;;;;;5.57;3.75;;;;;;;12.71;54.57;100697.38;4996309;28;20046;-63
2021/03/31 02:16:13;;;;;;;7.10;4.55;;;;;;;12.70;54.41;100695.63;4979261;28;20108;-63
2021/03/31 02:18:44;;;;;;;5.47;3.72;;;;;;;12.70;54.44;100695.63;4963123;28;20473;-63
2021/03/31 02:22:53;;;;;;;7.20;4.32;;;;;;;12.69;54.62;100696.47;5152670;27;20424;-63
2021/03/31 02:25:20;;;;;;;4.70;3.38;;;;;;;12.69;54.37;100683.47;5152615;27;20035;-63
2021/03/31 02:27:55;;;;;;;8.45;3.85;;;;;;;12.69;54.63;100690.41;5152772;27;20037;-63
2021/03/31 02:30:28;;;;;;;7.85;5.45;;;;;;;12.69;54.70;100687.81;5152345;27;20039;-64
2021/03/31 02:33:05;;;;;;;9.70;4.97;;;;;;;12.67;54.49;100680.00;5152631;27;20027;-63
2021/03/31 02:35:34;;;;;;;7.05;4.50;;;;;;;12.68;54.22;100688.66;5152841;27;20050;-63
2021/03/31 02:38:05;;;;;;;10.15;4.82;;;;;;;12.65;54.02;100671.28;5152579;27;20046;-62
2021/03/31 02:40:31;;;;;;;7.60;4.32;;;;;;;12.67;54.60;100674.78;5152018;27;20035;-63
2021/03/31 02:43:03;;;;;;;9.18;4.97;;;;;;;12.67;53.93;100668.69;5152278;27;20560;-62
2021/03/31 02:45:30;;;;;;;5.57;3.88;;;;;;;12.67;54.28;100668.69;5133294;27;20034;-63
2021/03/31 02:48:01;;;;;;;7.53;5.05;;;;;;;12.65;54.46;100660.88;5152080;27;20118;-62
2021/03/31 02:50:29;;;;;;;8.48;4.85;;;;;;;12.66;54.00;100660.03;5133723;27;20510;-63
2021/03/31 02:52:55;;;;;;;9.27;4.72;;;;;;;12.65;54.19;100660.88;5151969;27;20508;-62
2021/03/31 02:55:23;;;;;;;8.80;4.40;;;;;;;12.63;54.49;100657.38;5151826;27;20035;-63
2021/03/31 02:57:58;;;;;;;8.15;3.90;;;;;;;12.63;54.27;100649.56;5116521;27;20168;-62
2021/03/31 03:00:24;;;;;;;7.25;5.20;;;;;;;12.63;54.41;100652.19;5133308;27;20035;-63
2021/03/31 03:02:58;;;;;;;9.93;4.95;;;;;;;12.62;54.21;100646.09;5151763;27;20400;-62
2021/03/31 03:05:29;;;;;;;8.50;4.93;;;;;;;12.63;54.25;100652.19;5117057;27;20171;-63
2021/03/31 03:08:03;;;;;;;9.90;6.15;;;;;;;12.62;54.40;100645.22;5151356;27;20042;-62
2021/03/31 03:10:29;;;;;;;9.68;4.35;;;;;;;12.63;54.25;100649.56;5133140;27;20053;-63
2021/03/31 03:12:59;;;;;;;6.95;4.90;;;;;;;12.63;54.33;100646.97;5132720;27;20490;-63
2021/03/31 03:15:28;;;;;;;7.35;5.13;;;;;;;12.63;54.47;100641.78;5132864;27;20122;-63
2021/03/31 03:18:01;;;;;;;7.13;4.53;;;;;;;12.61;54.49;100641.72;5151262;27;20048;-63
2021/03/31 03:20:33;;;;;;;9.57;4.63;;;;;;;12.60;54.14;100639.13;5151654;27;20046;-63
2021/03/31 03:23:08;;;;;;;8.20;5.72;;;;;;;12.60;54.33;100639.13;5151125;27;20053;-63
2021/03/31 03:25:41;;;;;;;7.30;4.87;;;;;;;12.61;54.41;100638.28;5151441;27;20063;-63
2021/03/31 03:28:22;;;;;;;6.22;3.97;;;;;;;12.60;54.32;100637.41;5151791;27;20437;-63
2021/03/31 03:30:55;;;;;;;7.50;4.53;;;;;;;12.59;54.16;100638.25;5150931;27;20408;-62
2021/03/31 03:33:28;;;;;;;8.18;5.20;;;;;;;12.59;54.50;100635.66;5141742;27;20031;-63
2021/03/31 03:36:06;;;;;;;11.52;6.03;;;;;;;12.59;54.43;100640.84;5102129;27;20039;-63
2021/03/31 03:38:33;;;;;;;7.50;5.10;;;;;;;12.59;54.21;100634.75;5137579;27;20039;-63
2021/03/31 03:41:10;;;;;;;7.22;4.43;;;;;;;12.57;54.16;100631.25;5118880;27;20035;-63
2021/03/31 03:43:40;;;;;;;6.55;4.55;;;;;;;12.56;54.22;100630.41;5118817;27;20071;-63
2021/03/31 03:46:11;;;;;;;8.93;5.28;;;;;;;12.55;54.11;100627.75;5136774;27;20487;-62
2021/03/31 03:48:37;;;;;;;9.55;5.50;;;;;;;12.54;54.32;100626.88;5136666;27;20043;-63
2021/03/31 03:51:10;;;;;;;9.95;5.55;;;;;;;12.52;54.29;100628.59;5137513;27;20035;-63
2021/03/31 03:53:41;;;;;;;6.78;4.68;;;;;;;12.51;54.07;100626.84;5137029;27;20039;-62
2021/03/31 03:56:12;;;;;;;7.32;4.70;;;;;;;12.52;54.22;100627.72;5137057;27;20517;-63
2021/03/31 03:58:38;;;;;;;6.00;4.40;;;;;;;12.51;54.14;100631.16;5118345;27;20038;-63
2021/03/31 04:01:09;;;;;;;8.25;5.28;;;;;;;12.49;53.98;100624.22;5136729;27;20061;-64
2021/03/31 04:03:38;;;;;;;8.00;4.85;;;;;;;12.49;53.97;100631.13;5101726;27;20039;-63
2021/03/31 04:06:07;;;;;;;7.88;4.50;;;;;;;12.46;53.96;100623.28;5136446;27;20485;-62
2021/03/31 04:08:35;;;;;;;10.50;5.55;;;;;;;12.47;53.78;100630.22;5152496;27;20131;-62
2021/03/31 04:11:05;;;;;;;7.78;4.25;;;;;;;12.45;53.82;100622.41;5136865;27;20508;-63
2021/03/31 04:13:35;;;;;;;8.85;5.28;;;;;;;12.44;53.83;100618.06;5118127;27;20035;-63
2021/03/31 04:16:10;;;;;;;8.15;4.55;;;;;;;12.42;53.96;100621.47;5119006;27;20043;-62
2021/03/31 04:18:39;;;;;;;11.27;4.85;;;;;;;12.41;54.03;100623.19;5136774;27;20031;-63
2021/03/31 04:21:11;;;;;;;7.78;4.15;;;;;;;12.41;54.01;100627.53;5108251;28;20052;-64
2021/03/31 04:23:37;;;;;;;6.07;4.15;;;;;;;12.40;54.12;100617.97;5095700;28;20032;-63
2021/03/31 04:26:06;;;;;;;11.90;4.90;;;;;;;12.39;53.85;100616.22;5094969;28;20039;-63
2021/03/31 04:28:35;;;;;;;9.40;5.38;;;;;;;12.39;54.10;100613.63;5094261;28;20032;-62
2021/03/31 04:31:07;;;;;;;10.50;5.07;;;;;;;12.39;53.87;100616.22;5095624;28;20139;-63
2021/03/31 04:33:37;;;;;;;6.15;4.35;;;;;;;12.39;53.84;100613.63;5095550;28;20032;-63
2021/03/31 04:36:04;;;;;;;7.03;4.47;;;;;;;12.38;53.53;100610.13;5095364;28;20039;-63
2021/03/31 04:38:29;;;;;;;6.15;4.32;;;;;;;12.38;53.93;100610.13;5095587;28;20043;-62
2021/03/31 04:41:05;;;;;;;5.97;4.05;;;;;;;12.39;54.08;100608.44;5093977;28;20119;-63
2021/03/31 04:43:34;;;;;;;8.52;4.30;;;;;;;12.39;54.20;100611.88;5093903;28;20069;-64
2021/03/31 04:46:04;;;;;;;7.68;4.13;;;;;;;12.38;53.67;100607.53;5094181;28;20044;-64
2021/03/31 04:48:35;;;;;;;6.35;4.22;;;;;;;12.37;53.70;100600.63;5093656;28;20067;-62
2021/03/31 04:51:00;;;;;;;7.32;4.45;;;;;;;12.38;53.71;100604.94;5093861;28;20423;-62
2021/03/31 04:53:28;;;;;;;7.28;4.35;;;;;;;12.37;54.06;100604.94;5094871;28;20032;-63
2021/03/31 04:56:00;;;;;;;5.63;3.53;;;;;;;12.39;54.17;100601.50;5094004;28;20063;-62
2021/03/31 04:58:28;;;;;;;6.53;4.28;;;;;;;12.39;54.06;100603.22;5093624;28;20032;-63
2021/03/31 05:01:02;;;;;;;9.32;4.00;;;;;;;12.39;53.87;100605.81;5094219;28;20043;-62
2021/03/31 05:03:30;;;;;;;6.15;4.00;;;;;;;12.40;54.16;100607.59;5094878;28;20035;-62
2021/03/31 05:05:58;;;;;;;7.38;4.32;;;;;;;12.39;54.02;100611.03;5094577;28;20126;-63
2021/03/31 05:08:28;;;;;;;6.13;3.78;;;;;;;12.37;54.02;100604.94;5094490;28;20035;-63
2021/03/31 05:10:56;;;;;;;8.55;3.95;;;;;;;12.37;54.07;100611.00;5094537;28;20058;-62
2021/03/31 05:13:22;;;;;;;6.47;4.22;;;;;;;12.36;53.55;100605.78;5094146;28;20032;-63
2021/03/31 05:15:47;;;;;;;7.22;4.25;;;;;;;12.32;53.97;100597.91;5093198;28;20032;-62
2021/03/31 05:18:18;;;;;;;9.80;4.63;;;;;;;12.32;53.77;100600.50;5094484;28;20387;-63
2021/03/31 05:20:43;;;;;;;7.70;4.32;;;;;;;12.33;53.96;100598.81;5099388;27;20528;-64
2021/03/31 05:23:09;;;;;;;8.10;4.30;;;;;;;12.30;53.57;100594.41;5135403;27;20035;-63
2021/03/31 05:25:34;;;;;;;7.28;4.10;;;;;;;12.31;53.48;100600.50;5100461;27;20049;-63
2021/03/31 05:28:01;;;;;;;6.82;3.97;;;;;;;12.31;53.64;100598.75;5134801;27;20043;-62
2021/03/31 05:30:26;;;;;;;9.07;5.05;;;;;;;12.31;53.44;100593.56;5099904;27;20041;-63
2021/03/31 05:32:54;;;;;;;7.53;4.20;;;;;;;12.31;53.49;100590.09;5099796;27;20480;-63
2021/03/31 05:35:23;;;;;;;7.20;4.60;;;;;;;12.29;53.72;100595.28;5135305;27;20049;-62
2021/03/31 05:37:51;;;;;;;8.18;4.82;;;;;;;12.30;53.62;100603.94;5135269;27;20039;-63
2021/03/31 05:40:22;;;;;;;5.90;4.38;;;;;;;12.27;53.75;100590.88;5133741;27;20482;-62
2021/03/31 05:42:51;;;;;;;9.88;4.57;;;;;;;12.27;53.64;100591.78;5116364;27;20398;-63
2021/03/31 05:45:16;;;;;;;9.43;4.43;;;;;;;12.27;54.13;100591.78;5134968;27;20043;-64
2021/03/31 05:47:44;;;;;;;7.10;4.20;;;;;;;12.28;53.66;100592.63;5134601;27;20040;-63
2021/03/31 05:50:14;;;;;;;15.30;5.35;;;;;;;12.29;53.81;100597.00;5134870;27;20122;-63
2021/03/31 05:52:43;;;;;;;10.80;5.13;;;;;;;12.27;53.57;100590.88;5134806;27;20482;-63
2021/03/31 05:55:11;;;;;;;11.70;4.45;;;;;;;12.27;53.66;100591.78;5116028;27;20076;-62
2021/03/31 05:57:40;;;;;;;9.25;5.07;;;;;;;12.27;53.66;100589.19;5134171;27;20042;-63
2021/03/31 06:00:10;;;;;;;8.65;4.85;;;;;;;12.28;53.80;100592.63;5134694;27;20540;-62
2021/03/31 06:02:42;;;;;;;7.85;4.47;;;;;;;12.27;53.86;100591.78;5116767;27;20023;-62
2021/03/31 06:05:09;;;;;;;10.23;4.90;;;;;;;12.27;53.71;100594.38;5134347;27;20429;-62
2021/03/31 06:07:34;;;;;;;9.95;5.10;;;;;;;12.28;53.44;100590.03;5134220;27;20035;-63
2021/03/31 06:10:14;;;;;;;8.63;4.70;;;;;;;12.28;53.58;100595.25;5115995;28;20440;-63
2021/03/31 06:12:59;;;;;;;9.43;4.72;;;;;;;12.28;53.58;100597.84;5134813;27;20074;-63
2021/03/31 06:15:32;;;;;;;8.93;4.45;;;;;;;12.26;53.62;100590.03;5116683;27;20039;-63
2021/03/31 06:18:07;;;;;;;9.32;4.07;;;;;;;12.26;53.63;100595.22;5134781;27;20065;-62
2021/03/31 06:20:36;;;;;;;12.05;4.30;;;;;;;12.27;53.52;100594.38;5115902;28;20031;-63
2021/03/31 06:23:57;;;;;;;5.70;4.03;;;;;;;12.29;53.54;100599.59;5099461;28;20167;-63
2021/03/31 06:26:03;;;;;;;6.55;4.57;;;;;;;12.29;53.63;100597.00;5119720;28;20063;-63
2021/03/31 06:28:40;;;;;;;10.63;4.80;;;;;;;12.29;53.83;100597.88;5116388;28;20066;-63
2021/03/31 06:31:16;;;;;;;7.20;4.18;;;;;;;12.28;53.81;100596.13;5134241;28;20039;-63
2021/03/31 06:33:45;;;;;;;9.10;4.55;;;;;;;12.30;53.63;100594.41;5134578;28;20031;-62
2021/03/31 06:36:13;;;;;;;7.13;4.05;;;;;;;12.31;53.41;100590.97;5135000;28;20110;-63
2021/03/31 06:38:50;;;;;;;9.10;5.20;;;;;;;12.32;53.26;100591.84;5133937;28;20095;-63
2021/03/31 06:44:25;;;;;;;9.82;3.78;;;;;;;12.35;53.88;100597.13;5134232;28;20073;-62
2021/03/31 06:46:56;;;;;;;9.20;4.32;;;;;;;12.34;53.36;100591.03;5115310;28;20123;-62
2021/03/31 06:49:30;;;;;;;9.25;4.47;;;;;;;12.37;53.47;100600.63;5116243;28;20047;-63
2021/03/31 06:52:06;;;;;;;13.13;4.07;;;;;;;12.37;53.59;100595.41;5134072;28;20118;-63
2021/03/31 06:54:48;;;;;;;5.38;3.90;;;;;;;12.39;53.47;100593.69;5099322;28;20505;-63
2021/03/31 06:57:25;;;;;;;10.93;4.72;;;;;;;12.41;53.39;100591.13;5134228;28;20057;-63
2021/03/31 07:00:06;;;;;;;8.75;4.55;;;;;;;12.42;53.51;100595.50;5133897;28;20035;-63
2021/03/31 07:02:39;;;;;;;8.98;4.43;;;;;;;12.43;53.82;100592.03;5115616;28;20115;-63
2021/03/31 07:05:08;;;;;;;8.98;4.53;;;;;;;12.44;53.72;100592.06;5134321;28;20035;-63
2021/03/31 07:07:43;;;;;;;7.90;4.25;;;;;;;12.45;53.38;100588.63;5134162;27;20080;-65
2021/03/31 07:10:15;;;;;;;5.57;4.03;;;;;;;12.46;53.47;100590.38;5119867;27;20041;-63
2021/03/31 07:12:46;;;;;;;12.00;4.32;;;;;;;12.47;53.42;100581.72;5137891;27;20042;-64
2021/03/31 07:15:21;;;;;;;6.38;4.00;;;;;;;12.49;53.49;100586.94;5137821;27;20046;-63
2021/03/31 07:17:56;;;;;;;7.60;3.92;;;;;;;12.51;53.60;100592.19;5101929;27;20031;-63
2021/03/31 07:20:27;;;;;;;5.88;4.10;;;;;;;12.51;53.70;100585.22;5119424;27;20031;-63
2021/03/31 07:22:53;;;;;;;6.45;3.97;;;;;;;12.54;53.50;100587.00;5137789;27;20027;-63
2021/03/31 07:25:23;;;;;;;8.27;4.75;;;;;;;12.56;53.66;100587.91;5119190;27;20486;-63
2021/03/31 07:27:54;;;;;;;8.55;4.57;;;;;;;12.57;53.47;100585.34;5119342;27;20027;-63
2021/03/31 07:30:24;;;;;;;5.93;3.95;;;;;;;12.58;53.67;100583.59;5137996;27;20039;-63
2021/03/31 07:32:53;;;;;;;10.55;4.13;;;;;;;12.60;53.63;100572.41;5119561;27;20035;-63
2021/03/31 07:35:24;;;;;;;13.43;4.60;;;;;;;12.62;53.76;100577.63;5119018;27;20405;-63
2021/03/31 07:37:50;;;;;;;7.15;4.60;;;;;;;12.64;53.53;100570.72;5119075;27;20482;-63
2021/03/31 07:40:17;;;;;;;8.68;4.93;;;;;;;12.66;53.39;100568.13;5136892;27;20066;-63
2021/03/31 07:42:55;;;;;;;8.95;4.57;;;;;;;12.67;53.48;100578.56;5137117;27;20560;-64
2021/03/31 07:45:30;;;;;;;10.75;4.45;;;;;;;12.69;53.41;100583.78;5137440;27;20114;-64
2021/03/31 07:47:56;;;;;;;10.32;4.55;;;;;;;12.71;53.58;100567.34;5119365;27;20475;-62
2021/03/31 07:50:22;;;;;;;6.22;4.15;;;;;;;12.73;53.53;100570.00;5118690;27;20031;-63
2021/03/31 07:52:50;;;;;;;6.82;4.22;;;;;;;12.74;53.66;100574.34;5136912;27;20083;-63
2021/03/31 07:55:34;;;;;;;11.25;4.95;;;;;;;12.75;53.47;100573.50;5136835;27;20085;-63
2021/03/31 07:58:20;;;;;;;9.52;4.32;;;;;;;12.78;53.36;100573.53;5137210;27;20028;-63
2021/03/31 08:00:49;;;;;;;7.85;4.18;;;;;;;12.78;53.68;100565.72;5136732;27;20084;-63
2021/03/31 08:03:19;;;;;;;9.05;3.97;;;;;;;12.81;53.95;100575.31;5136917;27;20091;-63
2021/03/31 08:06:14;;;;;;;8.95;4.32;;;;;;;12.82;53.78;100569.25;5136781;27;20039;-63
2021/03/31 08:08:46;;;;;;;;;;;;;;;12.81;53.51;100575.31;5109192;27;20062;-63
2021/03/31 08:11:12;;;;;;;6.50;4.15;;;;;;;12.82;53.66;100572.72;5136688;27;20006;-63
2021/03/31 08:13:41;;;;;;;9.43;4.95;;;;;;;12.84;53.77;100571.03;5136240;27;20038;-62
2021/03/31 08:16:41;;;;;;;8.40;4.57;;;;;;;12.86;53.60;100576.22;5136597;27;20135;-63
2021/03/31 08:19:10;;;;;;;6.50;4.57;;;;;;;12.86;53.41;100574.53;5118305;27;20035;-63
2021/03/31 08:21:35;;;;;;;5.57;4.32;;;;;;;12.88;53.42;100571.94;5136610;27;20043;-63
2021/03/31 08:24:03;;;;;;;9.75;4.05;;;;;;;12.90;53.52;100589.34;5136316;27;20038;-62
2021/03/31 08:26:32;;;;;;;8.73;4.55;;;;;;;12.91;53.58;100578.09;5136322;27;20393;-64
2021/03/31 08:29:03;;;;;;;7.45;5.15;;;;;;;12.91;53.41;100580.69;5136710;27;20386;-63
2021/03/31 08:31:36;;;;;;;5.82;3.92;;;;;;;12.94;53.52;100579.84;5136097;27;20035;-63
2021/03/31 08:34:05;;;;;;;8.32;4.45;;;;;;;12.95;53.35;100582.47;5117371;27;20038;-62
2021/03/31 08:36:37;;;;;;;12.02;4.30;;;;;;;12.98;53.55;100579.03;5136198;27;20035;-63
2021/03/31 08:39:06;;;;;;;7.03;4.82;;;;;;;13.01;53.69;100588.63;5100818;27;20027;-64
2021/03/31 08:41:32;;;;;;;9.07;5.00;;;;;;;13.03;53.36;100582.56;5117645;27;20035;-64
2021/03/31 08:44:51;;;;;;;15.02;5.10;;;;;;;13.07;53.50;100576.56;5135911;27;20129;-62
2021/03/31 08:47:22;;;;;;;9.18;4.68;;;;;;;13.10;53.47;100580.94;5036190;28;20041;-63
2021/03/31 08:50:06;;;;;;;9.20;4.68;;;;;;;13.13;53.56;100574.91;5052801;28;20064;-63
2021/03/31 08:52:37;;;;;;;9.45;4.75;;;;;;;13.16;53.20;100578.41;5099766;27;20049;-63
2021/03/31 08:55:12;;;;;;;10.40;5.18;;;;;;;13.20;53.39;100571.53;5117842;27;20039;-63
2021/03/31 08:57:41;;;;;;;11.55;4.82;;;;;;;13.23;53.21;100566.38;5135854;27;20062;-62
2021/03/31 09:00:09;;;;;;;6.97;4.22;;;;;;;13.26;53.23;100571.63;5135699;27;20032;-63
2021/03/31 09:02:40;;;;;;;8.80;4.90;;;;;;;13.29;53.54;100562.97;5117690;27;20096;-63
2021/03/31 09:05:06;;;;;;;15.65;4.88;;;;;;;13.32;53.54;100565.63;5117065;27;20027;-63
2021/03/31 09:07:32;;;;;;;12.80;4.53;;;;;;;13.36;53.59;100563.06;5135768;27;20042;-63
2021/03/31 09:10:03;;;;;;;10.88;5.38;;;;;;;13.40;53.29;100558.78;5135618;27;20027;-63
2021/03/31 09:12:30;;;;;;;10.00;5.18;;;;;;;13.43;53.71;100560.59;5135365;27;20039;-63
2021/03/31 09:15:00;;;;;;;10.18;4.22;;;;;;;13.45;53.63;100558.88;5117356;27;20390;-62
2021/03/31 09:17:28;;;;;;;11.82;4.32;;;;;;;13.50;53.47;100558.06;5117011;27;20035;-63
2021/03/31 09:19:58;;;;;;;11.23;4.43;;;;;;;13.53;53.74;100559.84;5117458;27;20031;-62
2021/03/31 09:22:29;;;;;;;13.77;4.75;;;;;;;13.58;53.78;100552.06;5116422;27;20096;-64
2021/03/31 09:24:58;;;;;;;19.58;5.18;;;;;;;13.62;53.56;100561.69;5135377;27;20035;-63
2021/03/31 09:27:26;;;;;;;9.93;5.38;;;;;;;13.65;53.40;100559.97;5135158;27;20041;-63
2021/03/31 09:29:54;;;;;;;12.93;4.93;;;;;;;13.68;53.51;100557.41;5134953;27;20039;-62
2021/03/31 09:32:49;;;;;;;12.48;4.88;;;;;;;13.73;53.74;100562.66;5135019;27;20031;-63
2021/03/31 09:35:17;;;;;;;9.25;4.45;;;;;;;13.76;53.76;100556.63;5134345;27;20051;-63
2021/03/31 09:37:51;;;;;;;10.15;5.20;;;;;;;13.80;53.64;100553.19;5116961;27;20080;-63
2021/03/31 09:40:26;;;;;;;11.20;5.20;;;;;;;13.82;53.81;100557.56;5135299;27;20080;-63
2021/03/31 09:42:56;;;;;;;11.43;5.03;;;;;;;13.83;53.85;100540.19;5116896;27;20121;-63
2021/03/31 09:45:29;;;;;;;12.18;5.57;;;;;;;13.88;53.83;100546.34;5134821;27;20489;-63
2021/03/31 09:47:58;;;;;;;9.65;4.97;;;;;;;13.92;53.63;100549.84;5150942;27;20497;-63
2021/03/31 09:50:25;;;;;;;11.77;4.72;;;;;;;13.94;53.54;100546.38;5116476;27;20122;-63
2021/03/31 09:53:59;;;;;;;9.70;5.13;;;;;;;13.97;53.64;100548.16;5152210;27;20400;-63
2021/03/31 09:56:24;;;;;;;8.52;5.45;;;;;;;14.01;53.83;100544.75;5152515;27;20063;-62
2021/03/31 09:58:56;;;;;;;8.30;5.10;;;;;;;14.03;53.77;100539.53;5134254;27;20077;-62
2021/03/31 10:01:22;;;;;;;10.93;5.22;;;;;;;14.06;53.52;100535.22;5153003;27;20031;-63
2021/03/31 10:03:48;;;;;;;10.90;5.93;;;;;;;14.10;54.12;100541.31;5152035;27;20034;-63
2021/03/31 10:06:26;;;;;;;13.45;4.95;;;;;;;14.14;54.04;100530.06;5134034;27;20118;-63
2021/03/31 10:08:53;;;;;;;8.43;5.05;;;;;;;14.15;53.71;100529.22;5133975;27;20035;-63
2021/03/31 10:11:26;;;;;;;12.85;5.00;;;;;;;14.17;53.81;100527.50;5152027;27;20031;-62
2021/03/31 10:13:52;;;;;;;14.13;5.40;;;;;;;14.19;53.94;100510.16;5133379;27;20435;-63
2021/03/31 10:16:20;;;;;;;15.77;5.68;;;;;;;14.23;53.93;100526.69;5168322;27;20037;-63
2021/03/31 10:18:46;;;;;;;13.68;5.32;;;;;;;14.25;53.87;100524.97;5134034;27;20106;-64
2021/03/31 10:21:21;;;;;;;10.25;5.35;;;;;;;14.27;53.79;100518.03;5168303;27;20521;-64
2021/03/31 10:23:46;;;;;;;14.18;6.15;;;;;;;14.28;54.06;100519.78;5152078;27;20039;-63
2021/03/31 10:26:19;;;;;;;9.20;4.75;;;;;;;14.30;53.87;100518.91;5152505;27;20043;-63
2021/03/31 10:28:45;;;;;;;8.23;4.57;;;;;;;14.32;53.60;100517.19;5133833;27;20042;-63
2021/03/31 10:31:21;;;;;;;10.13;5.07;;;;;;;14.36;53.74;100515.47;5152285;27;20035;-63
2021/03/31 10:33:47;;;;;;;9.95;4.85;;;;;;;14.40;53.80;100506.84;5151790;27;20031;-64
2021/03/31 10:36:33;;;;;;;15.02;5.15;;;;;;;14.44;53.91;100511.22;5133241;27;20039;-62
2021/03/31 10:39:34;;;;;;;12.55;5.20;;;;;;;14.47;53.70;100510.34;5151296;27;20027;-63
2021/03/31 10:53:48;;;;;;;14.52;5.13;;;;;;;14.57;54.04;100496.50;5090880;28;20052;-63
2021/03/31 10:56:13;;;;;;;8.65;4.38;;;;;;;14.58;53.95;100498.25;5090929;28;20055;-63
2021/03/31 10:58:41;;;;;;;13.00;5.05;;;;;;;14.60;54.25;100506.13;5122882;27;20138;-63
2021/03/31 11:01:12;;;;;;;13.10;4.32;;;;;;;14.60;53.90;100496.53;5151324;27;20050;-63
2021/03/31 11:03:42;;;;;;;11.60;4.03;;;;;;;14.62;53.99;100497.41;5147251;27;20027;-62
2021/03/31 11:06:09;;;;;;;14.38;5.10;;;;;;;14.63;53.94;100490.50;5137439;27;20046;-63
2021/03/31 11:08:34;;;;;;;10.93;4.13;;;;;;;14.66;54.14;100493.09;5119527;27;20035;-64
2021/03/31 11:11:00;;;;;;;7.65;3.83;;;;;;;14.67;54.11;100487.00;5137332;27;20542;-62
2021/03/31 11:13:25;;;;;;;9.38;4.38;;;;;;;14.71;54.21;100482.75;5137216;27;20031;-64
2021/03/31 11:15:56;;;;;;;9.25;4.15;;;;;;;14.74;54.02;100485.34;5118919;27;20374;-64
2021/03/31 11:18:36;;;;;;;12.32;4.53;;;;;;;14.76;54.14;100483.63;5137195;27;20038;-64
2021/03/31 11:26:30;;;;;;;8.27;3.95;;;;;;;14.85;54.30;100481.09;5136458;27;20406;-64
2021/03/31 11:28:55;;;;;;;7.60;3.92;;;;;;;14.88;54.35;100473.25;5118900;27;20042;-64
2021/03/31 11:31:25;;;;;;;12.93;3.97;;;;;;;14.90;54.28;100468.91;5118887;27;20042;-63
2021/03/31 11:33:56;;;;;;;8.38;4.70;;;;;;;14.90;54.26;100466.31;5118499;27;20031;-62
2021/03/31 11:36:24;;;;;;;14.35;5.32;;;;;;;14.92;54.16;100463.72;5118465;27;20027;-63
2021/03/31 11:38:52;;;;;;;15.07;4.93;;;;;;;14.94;54.29;100455.88;5137342;27;20050;-63
2021/03/31 11:41:24;;;;;;;6.20;4.40;;;;;;;14.96;54.16;100459.38;5118694;27;20035;-63
2021/03/31 11:43:49;;;;;;;11.18;5.50;;;;;;;14.98;54.53;100448.06;5136672;27;20482;-62
2021/03/31 11:46:14;;;;;;;14.50;4.25;;;;;;;14.99;54.50;100455.03;5136480;27;20168;-64
2021/03/31 11:48:40;;;;;;;8.98;4.53;;;;;;;15.02;54.31;100448.97;5118580;27;20043;-62
2021/03/31 11:51:08;;;;;;;13.55;4.90;;;;;;;15.04;54.19;100440.28;5101160;27;20046;-64
2021/03/31 11:53:34;;;;;;;10.60;5.03;;;;;;;15.05;54.31;100439.41;5079752;28;20550;-64
2021/03/31 11:55:59;;;;;;;9.13;4.55;;;;;;;15.09;54.26;100437.69;5095333;28;20134;-64
2021/03/31 11:58:25;;;;;;;8.07;4.20;;;;;;;15.12;54.47;100439.41;5095663;28;20035;-63
2021/03/31 12:00:50;;;;;;;7.90;3.88;;;;;;;15.13;54.37;100426.38;5095373;28;20115;-63
2021/03/31 12:03:17;;;;;;;6.20;4.40;;;;;;;15.17;54.32;100427.25;5094119;28;20032;-63
2021/03/31 12:05:43;;;;;;;8.80;4.60;;;;;;;15.18;54.53;100418.56;5095303;28;20040;-64